sensor_id;sensor_type;location;lat;lon;timestamp;pressure;altitude;pressure_sealevel;temperature;humidity
46129;BME280;31860;45.186;5.790;2023-02-01T00:01:41;100359.78;;;6.52;76.74
46129;BME280;31860;45.186;5.790;2023-02-01T00:04:06;100362.22;;;6.47;78.51
46129;BME280;31860;45.186;5.790;2023-02-01T00:06:31;100364.75;;;6.46;79.14
46129;BME280;31860;45.186;5.790;2023-02-01T00:08:57;100370.78;;;6.45;78.95
46129;BME280;31860;45.186;5.790;2023-02-01T00:11:23;100363.66;;;6.39;79.38
46129;BME280;31860;45.186;5.790;2023-02-01T00:13:49;100361.00;;;6.38;79.58
46129;BME280;31860;45.186;5.790;2023-02-01T00:16:17;100363.47;;;6.33;80.53
46129;BME280;31860;45.186;5.790;2023-02-01T00:18:48;100361.59;;;6.29;81.26
46129;BME280;31860;45.186;5.790;2023-02-01T00:21:16;100368.47;;;6.29;81.19
46129;BME280;31860;45.186;5.790;2023-02-01T00:23:42;100371.91;;;6.28;82.41
46129;BME280;31860;45.186;5.790;2023-02-01T00:26:15;100372.72;;;6.27;82.88
46129;BME280;31860;45.186;5.790;2023-02-01T00:28:41;100372.69;;;6.25;82.49
46129;BME280;31860;45.186;5.790;2023-02-01T00:31:07;100365.84;;;6.27;82.58
46129;BME280;31860;45.186;5.790;2023-02-01T00:33:33;100376.22;;;6.27;82.06
46129;BME280;31860;45.186;5.790;2023-02-01T00:35:59;100365.78;;;6.26;81.44
46129;BME280;31860;45.186;5.790;2023-02-01T00:38:26;100368.44;;;6.27;81.52
46129;BME280;31860;45.186;5.790;2023-02-01T00:40:52;100365.88;;;6.29;80.90
46129;BME280;31860;45.186;5.790;2023-02-01T00:43:18;100370.34;;;6.33;80.93
46129;BME280;31860;45.186;5.790;2023-02-01T00:45:45;100379.03;;;6.33;80.78
46129;BME280;31860;45.186;5.790;2023-02-01T00:48:11;100373.88;;;6.35;80.91
46129;BME280;31860;45.186;5.790;2023-02-01T00:50:43;100385.03;;;6.32;80.69
46129;BME280;31860;45.186;5.790;2023-02-01T00:53:10;100382.44;;;6.32;79.54
46129;BME280;31860;45.186;5.790;2023-02-01T00:55:36;100384.94;;;6.29;79.53
46129;BME280;31860;45.186;5.790;2023-02-01T00:58:01;100384.75;;;6.25;79.61
46129;BME280;31860;45.186;5.790;2023-02-01T01:00:27;100390.00;;;6.26;79.57
46129;BME280;31860;45.186;5.790;2023-02-01T01:02:52;100392.53;;;6.25;79.39
46129;BME280;31860;45.186;5.790;2023-02-01T01:05:18;100382.00;;;6.20;79.37
46129;BME280;31860;45.186;5.790;2023-02-01T01:07:44;100394.03;;;6.18;79.68
46129;BME280;31860;45.186;5.790;2023-02-01T01:10:10;100387.03;;;6.16;79.82
46129;BME280;31860;45.186;5.790;2023-02-01T01:12:35;100388.72;;;6.15;79.85
46129;BME280;31860;45.186;5.790;2023-02-01T01:15:01;100391.22;;;6.12;80.26
46129;BME280;31860;45.186;5.790;2023-02-01T01:17:27;100388.56;;;6.11;80.29
46129;BME280;31860;45.186;5.790;2023-02-01T01:19:52;100393.63;;;6.08;80.21
46129;BME280;31860;45.186;5.790;2023-02-01T01:22:17;100391.97;;;6.10;80.23
46129;BME280;31860;45.186;5.790;2023-02-01T01:24:43;100404.84;;;6.07;79.80
46129;BME280;31860;45.186;5.790;2023-02-01T01:27:08;100402.19;;;6.05;80.19
46129;BME280;31860;45.186;5.790;2023-02-01T01:29:34;100390.88;;;6.03;80.32
46129;BME280;31860;45.186;5.790;2023-02-01T01:31:59;100395.03;;;6.00;81.26
46129;BME280;31860;45.186;5.790;2023-02-01T01:34:25;100389.72;;;5.95;82.15
46129;BME280;31860;45.186;5.790;2023-02-01T01:36:50;100406.97;;;5.95;82.60
46129;BME280;31860;45.186;5.790;2023-02-01T01:39:16;100408.63;;;5.93;82.87
46129;BME280;31860;45.186;5.790;2023-02-01T01:41:41;100394.69;;;5.91;83.28
46129;BME280;31860;45.186;5.790;2023-02-01T01:47:10;100386.97;;;5.92;84.65
46129;BME280;31860;45.186;5.790;2023-02-01T01:49:36;100394.84;;;5.94;85.00
46129;BME280;31860;45.186;5.790;2023-02-01T01:52:03;100389.56;;;5.92;85.04
46129;BME280;31860;45.186;5.790;2023-02-01T01:54:32;100393.91;;;5.92;85.51
46129;BME280;31860;45.186;5.790;2023-02-01T01:57:03;100401.63;;;5.90;86.00
46129;BME280;31860;45.186;5.790;2023-02-01T01:59:31;100389.47;;;5.89;85.96
46129;BME280;31860;45.186;5.790;2023-02-01T02:01:57;100385.03;;;5.87;85.68
46129;BME280;31860;45.186;5.790;2023-02-01T02:04:23;100383.28;;;5.86;86.34
46129;BME280;31860;45.186;5.790;2023-02-01T02:07:00;100379.84;;;5.87;86.89
46129;BME280;31860;45.186;5.790;2023-02-01T02:09:28;100385.84;;;5.84;87.25
46129;BME280;31860;45.186;5.790;2023-02-01T02:11:53;100384.94;;;5.84;87.39
46129;BME280;31860;45.186;5.790;2023-02-01T02:14:20;100390.94;;;5.83;87.48
46129;BME280;31860;45.186;5.790;2023-02-01T02:33:23;100364.78;;;5.76;87.54
46129;BME280;31860;45.186;5.790;2023-02-01T02:41:33;100385.25;;;5.70;87.86
46129;BME280;31860;45.186;5.790;2023-02-01T02:45:02;100375.59;;;5.66;88.31
46129;BME280;31860;45.186;5.790;2023-02-01T02:47:57;100381.63;;;5.65;87.58
46129;BME280;31860;45.186;5.790;2023-02-01T02:50:33;100375.59;;;5.66;88.20
46129;BME280;31860;45.186;5.790;2023-02-01T02:53:35;100372.19;;;5.67;88.92
46129;BME280;31860;45.186;5.790;2023-02-01T02:56:21;100364.34;;;5.66;88.38
46129;BME280;31860;45.186;5.790;2023-02-01T02:59:08;100370.47;;;5.68;88.58
46129;BME280;31860;45.186;5.790;2023-02-01T03:01:53;100366.94;;;5.66;89.21
46129;BME280;31860;45.186;5.790;2023-02-01T03:04:37;100366.09;;;5.65;89.44
46129;BME280;31860;45.186;5.790;2023-02-01T03:07:45;100359.09;;;5.64;89.47
46129;BME280;31860;45.186;5.790;2023-02-01T03:10:05;100355.63;;;5.64;89.50
46129;BME280;31860;45.186;5.790;2023-02-01T03:12:36;100347.00;;;5.63;88.71
46129;BME280;31860;45.186;5.790;2023-02-01T03:15:51;100358.22;;;5.64;89.18
46129;BME280;31860;45.186;5.790;2023-02-01T03:18:25;100357.34;;;5.63;88.54
46129;BME280;31860;45.186;5.790;2023-02-01T03:20:53;100352.81;;;5.58;88.28
46129;BME280;31860;45.186;5.790;2023-02-01T03:23:27;100355.41;;;5.58;88.34
46129;BME280;31860;45.186;5.790;2023-02-01T03:25:56;100353.63;;;5.57;88.41
46129;BME280;31860;45.186;5.790;2023-02-01T03:28:25;100351.69;;;5.51;88.01
46129;BME280;31860;45.186;5.790;2023-02-01T03:30:53;100350.09;;;5.55;88.01
46129;BME280;31860;45.186;5.790;2023-02-01T03:33:21;100346.56;;;5.53;88.23
46129;BME280;31860;45.186;5.790;2023-02-01T03:43:37;100350.94;;;5.54;87.93
46129;BME280;31860;45.186;5.790;2023-02-01T03:46:10;100355.22;;;5.53;88.55
46129;BME280;31860;45.186;5.790;2023-02-01T03:48:37;100352.63;;;5.53;88.39
46129;BME280;31860;45.186;5.790;2023-02-01T03:51:05;100354.38;;;5.54;88.12
46129;BME280;31860;45.186;5.790;2023-02-01T03:53:33;100359.47;;;5.51;87.91
46129;BME280;31860;45.186;5.790;2023-02-01T03:56:02;100357.78;;;5.52;88.14
46129;BME280;31860;45.186;5.790;2023-02-01T03:58:27;100356.88;;;5.51;87.78
46129;BME280;31860;45.186;5.790;2023-02-01T04:00:57;100360.41;;;5.53;86.99
46129;BME280;31860;45.186;5.790;2023-02-01T04:03:24;100355.94;;;5.49;86.40
46129;BME280;31860;45.186;5.790;2023-02-01T04:05:51;100367.03;;;5.47;86.38
46129;BME280;31860;45.186;5.790;2023-02-01T04:08:18;100358.28;;;5.43;86.17
46129;BME280;31860;45.186;5.790;2023-02-01T04:10:44;100365.19;;;5.43;87.04
46129;BME280;31860;45.186;5.790;2023-02-01T04:13:10;100368.53;;;5.40;87.58
46129;BME280;31860;45.186;5.790;2023-02-01T04:15:35;100381.47;;;5.40;88.05
46129;BME280;31860;45.186;5.790;2023-02-01T04:18:01;100378.91;;;5.40;87.98
46129;BME280;31860;45.186;5.790;2023-02-01T04:20:26;100383.19;;;5.40;88.21
46129;BME280;31860;45.186;5.790;2023-02-01T04:22:52;100381.47;;;5.40;88.91
46129;BME280;31860;45.186;5.790;2023-02-01T04:25:17;100385.78;;;5.40;89.13
46129;BME280;31860;45.186;5.790;2023-02-01T04:27:43;100389.16;;;5.37;88.82
46129;BME280;31860;45.186;5.790;2023-02-01T04:30:09;100395.13;;;5.36;88.80
46129;BME280;31860;45.186;5.790;2023-02-01T04:32:36;100401.06;;;5.34;89.19
46129;BME280;31860;45.186;5.790;2023-02-01T04:35:02;100402.00;;;5.36;89.16
46129;BME280;31860;45.186;5.790;2023-02-01T04:37:27;100397.72;;;5.36;90.04
46129;BME280;31860;45.186;5.790;2023-02-01T04:39:54;100402.09;;;5.37;90.21
46129;BME280;31860;45.186;5.790;2023-02-01T04:42:19;100396.03;;;5.37;90.27
46129;BME280;31860;45.186;5.790;2023-02-01T04:44:44;100389.91;;;5.35;90.71
46129;BME280;31860;45.186;5.790;2023-02-01T04:47:10;100397.66;;;5.35;90.09
46129;BME280;31860;45.186;5.790;2023-02-01T04:49:35;100396.72;;;5.33;89.82
46129;BME280;31860;45.186;5.790;2023-02-01T04:52:01;100394.13;;;5.33;89.81
46129;BME280;31860;45.186;5.790;2023-02-01T04:54:26;100391.44;;;5.30;89.81
46129;BME280;31860;45.186;5.790;2023-02-01T04:56:51;100397.31;;;5.26;89.07
46129;BME280;31860;45.186;5.790;2023-02-01T04:59:17;100395.47;;;5.23;89.93
46129;BME280;31860;45.186;5.790;2023-02-01T05:01:42;100400.66;;;5.23;90.80
46129;BME280;31860;45.186;5.790;2023-02-01T05:04:08;100393.72;;;5.22;90.47
46129;BME280;31860;45.186;5.790;2023-02-01T05:06:33;100394.56;;;5.23;90.67
46129;BME280;31860;45.186;5.790;2023-02-01T05:08:58;100386.69;;;5.20;90.79
46129;BME280;31860;45.186;5.790;2023-02-01T05:11:24;100387.59;;;5.20;91.48
46129;BME280;31860;45.186;5.790;2023-02-01T05:14:08;100388.41;;;5.19;91.43
46129;BME280;31860;45.186;5.790;2023-02-01T05:16:33;100381.53;;;5.20;91.20
46129;BME280;31860;45.186;5.790;2023-02-01T05:18:58;100377.16;;;5.19;91.16
46129;BME280;31860;45.186;5.790;2023-02-01T05:21:24;100386.66;;;5.18;91.95
46129;BME280;31860;45.186;5.790;2023-02-01T05:23:49;100387.38;;;5.16;92.09
46129;BME280;31860;45.186;5.790;2023-02-01T05:26:33;100382.31;;;5.19;92.47
46129;BME280;31860;45.186;5.790;2023-02-01T05:28:59;100389.34;;;5.21;92.19
46129;BME280;31860;45.186;5.790;2023-02-01T05:31:24;100382.53;;;5.23;91.83
46129;BME280;31860;45.186;5.790;2023-02-01T05:33:50;100389.53;;;5.26;91.91
46129;BME280;31860;45.186;5.790;2023-02-01T05:36:15;100390.41;;;5.26;92.07
46129;BME280;31860;45.186;5.790;2023-02-01T05:38:41;100385.22;;;5.26;90.99
46129;BME280;31860;45.186;5.790;2023-02-01T05:41:06;100393.78;;;5.24;91.07
46129;BME280;31860;45.186;5.790;2023-02-01T05:43:32;100398.06;;;5.23;90.97
46129;BME280;31860;45.186;5.790;2023-02-01T05:45:57;100402.59;;;5.29;91.39
46129;BME280;31860;45.186;5.790;2023-02-01T05:48:23;100401.66;;;5.27;91.30
46129;BME280;31860;45.186;5.790;2023-02-01T05:50:48;100401.59;;;5.25;91.30
46129;BME280;31860;45.186;5.790;2023-02-01T05:53:14;100405.09;;;5.26;90.86
46129;BME280;31860;45.186;5.790;2023-02-01T05:55:39;100408.41;;;5.23;91.45
46129;BME280;31860;45.186;5.790;2023-02-01T05:58:05;100402.34;;;5.23;91.00
46129;BME280;31860;45.186;5.790;2023-02-01T06:00:31;100407.47;;;5.21;91.35
46129;BME280;31860;45.186;5.790;2023-02-01T06:02:57;100414.28;;;5.19;90.72
46129;BME280;31860;45.186;5.790;2023-02-01T06:05:23;100422.00;;;5.18;90.54
46129;BME280;31860;45.186;5.790;2023-02-01T06:07:48;100410.69;;;5.16;90.98
46129;BME280;31860;45.186;5.790;2023-02-01T06:10:16;100419.31;;;5.15;90.40
46129;BME280;31860;45.186;5.790;2023-02-01T06:12:41;100424.38;;;5.13;90.30
46129;BME280;31860;45.186;5.790;2023-02-01T06:15:07;100426.91;;;5.12;90.26
46129;BME280;31860;45.186;5.790;2023-02-01T06:17:33;100426.03;;;5.11;90.24
46129;BME280;31860;45.186;5.790;2023-02-01T06:19:59;100428.63;;;5.11;90.17
46129;BME280;31860;45.186;5.790;2023-02-01T06:22:24;100424.38;;;5.13;90.51
46129;BME280;31860;45.186;5.790;2023-02-01T06:24:49;100420.09;;;5.14;90.96
46129;BME280;31860;45.186;5.790;2023-02-01T06:27:15;100427.06;;;5.15;91.70
46129;BME280;31860;45.186;5.790;2023-02-01T06:29:40;100434.91;;;5.16;92.10
46129;BME280;31860;45.186;5.790;2023-02-01T06:32:06;100433.09;;;5.15;92.40
46129;BME280;31860;45.186;5.790;2023-02-01T06:34:32;100440.06;;;5.16;92.36
46129;BME280;31860;45.186;5.790;2023-02-01T06:36:57;100438.34;;;5.17;93.26
46129;BME280;31860;45.186;5.790;2023-02-01T06:39:22;100433.16;;;5.17;92.61
46129;BME280;31860;45.186;5.790;2023-02-01T06:41:48;100434.91;;;5.16;93.25
46129;BME280;31860;45.186;5.790;2023-02-01T06:44:15;100441.81;;;5.17;93.09
46129;BME280;31860;45.186;5.790;2023-02-01T06:46:40;100436.59;;;5.16;93.17
46129;BME280;31860;45.186;5.790;2023-02-01T06:49:06;100435.69;;;5.15;93.23
46129;BME280;31860;45.186;5.790;2023-02-01T06:51:31;100429.56;;;5.13;94.04
46129;BME280;31860;45.186;5.790;2023-02-01T06:53:57;100434.75;;;5.13;95.23
46129;BME280;31860;45.186;5.790;2023-02-01T06:56:23;100437.34;;;5.13;95.06
46129;BME280;31860;45.186;5.790;2023-02-01T06:58:48;100429.56;;;5.13;96.03
46129;BME280;31860;45.186;5.790;2023-02-01T07:01:14;100434.69;;;5.12;95.93
46129;BME280;31860;45.186;5.790;2023-02-01T07:03:40;100444.25;;;5.13;95.85
46129;BME280;31860;45.186;5.790;2023-02-01T07:06:06;100444.31;;;5.14;96.17
46129;BME280;31860;45.186;5.790;2023-02-01T07:08:34;100439.94;;;5.13;95.72
46129;BME280;31860;45.186;5.790;2023-02-01T07:11:05;100439.94;;;5.13;96.93
46129;BME280;31860;45.186;5.790;2023-02-01T07:13:31;100450.28;;;5.13;96.26
46129;BME280;31860;45.186;5.790;2023-02-01T07:16:00;100464.06;;;5.12;96.53
46129;BME280;31860;45.186;5.790;2023-02-01T07:18:27;100466.78;;;5.15;95.62
46129;BME280;31860;45.186;5.790;2023-02-01T07:20:54;100466.03;;;5.18;95.37
46129;BME280;31860;45.186;5.790;2023-02-01T07:23:21;100473.78;;;5.18;95.01
46129;BME280;31860;45.186;5.790;2023-02-01T07:25:47;100472.00;;;5.17;95.10
46129;BME280;31860;45.186;5.790;2023-02-01T07:28:13;100482.44;;;5.18;95.45
46129;BME280;31860;45.186;5.790;2023-02-01T07:30:38;100487.69;;;5.20;95.77
46129;BME280;31860;45.186;5.790;2023-02-01T07:33:04;100488.63;;;5.22;95.79
46129;BME280;31860;45.186;5.790;2023-02-01T07:35:29;100491.28;;;5.23;95.78
46129;BME280;31860;45.186;5.790;2023-02-01T07:37:56;100496.53;;;5.25;95.51
46129;BME280;31860;45.186;5.790;2023-02-01T07:40:22;100499.13;;;5.25;95.77
46129;BME280;31860;45.186;5.790;2023-02-01T07:42:54;100499.16;;;5.26;96.20
46129;BME280;31860;45.186;5.790;2023-02-01T07:45:19;100506.13;;;5.27;96.29
46129;BME280;31860;45.186;5.790;2023-02-01T07:47:45;100501.84;;;5.28;97.24
46129;BME280;31860;45.186;5.790;2023-02-01T07:50:10;100495.84;;;5.29;97.78
46129;BME280;31860;45.186;5.790;2023-02-01T07:52:36;100504.44;;;5.28;98.17
46129;BME280;31860;45.186;5.790;2023-02-01T07:55:01;100500.97;;;5.27;98.30
46129;BME280;31860;45.186;5.790;2023-02-01T07:57:26;100512.28;;;5.29;98.55
46129;BME280;31860;45.186;5.790;2023-02-01T07:59:52;100514.91;;;5.31;97.44
46129;BME280;31860;45.186;5.790;2023-02-01T08:02:36;100524.38;;;5.30;97.49
46129;BME280;31860;45.186;5.790;2023-02-01T08:05:01;100539.97;;;5.32;97.45
46129;BME280;31860;45.186;5.790;2023-02-01T08:07:26;100543.47;;;5.32;98.03
46129;BME280;31860;45.186;5.790;2023-02-01T08:09:52;100553.88;;;5.34;98.51
46129;BME280;31860;45.186;5.790;2023-02-01T08:12:17;100553.09;;;5.35;98.05
46129;BME280;31860;45.186;5.790;2023-02-01T08:14:43;100561.03;;;5.39;98.16
46129;BME280;31860;45.186;5.790;2023-02-01T08:17:08;100559.34;;;5.40;98.34
46129;BME280;31860;45.186;5.790;2023-02-01T08:19:34;100556.75;;;5.40;98.22
46129;BME280;31860;45.186;5.790;2023-02-01T08:21:59;100561.19;;;5.42;98.17
46129;BME280;31860;45.186;5.790;2023-02-01T08:24:27;100562.88;;;5.42;98.25
46129;BME280;31860;45.186;5.790;2023-02-01T08:26:52;100563.72;;;5.41;98.73
46129;BME280;31860;45.186;5.790;2023-02-01T08:29:17;100570.69;;;5.43;98.66
46129;BME280;31860;45.186;5.790;2023-02-01T08:31:43;100543.16;;;5.45;98.96
46129;BME280;31860;45.186;5.790;2023-02-01T08:34:08;100513.03;;;5.47;99.28
46129;BME280;31860;45.186;5.790;2023-02-01T08:36:35;100524.47;;;5.52;98.70
46129;BME280;31860;45.186;5.790;2023-02-01T08:39:00;100546.28;;;5.57;97.53
46129;BME280;31860;45.186;5.790;2023-02-01T08:41:29;100550.75;;;5.61;96.22
46129;BME280;31860;45.186;5.790;2023-02-01T08:43:55;100557.84;;;5.65;96.40
46129;BME280;31860;45.186;5.790;2023-02-01T08:46:21;100559.66;;;5.68;95.59
46129;BME280;31860;45.186;5.790;2023-02-01T08:48:47;100533.78;;;5.69;94.60
46129;BME280;31860;45.186;5.790;2023-02-01T08:51:16;100525.16;;;5.69;93.84
46129;BME280;31860;45.186;5.790;2023-02-01T08:53:42;100519.16;;;5.70;92.83
46129;BME280;31860;45.186;5.790;2023-02-01T08:56:09;100516.59;;;5.71;92.39
46129;BME280;31860;45.186;5.790;2023-02-01T08:58:35;100518.41;;;5.72;91.24
46129;BME280;31860;45.186;5.790;2023-02-01T09:01:10;100528.00;;;5.75;92.29
46129;BME280;31860;45.186;5.790;2023-02-01T09:03:37;100526.47;;;5.80;93.31
46129;BME280;31860;45.186;5.790;2023-02-01T09:06:04;100520.69;;;5.86;93.18
46129;BME280;31860;45.186;5.790;2023-02-01T09:08:31;100514.84;;;5.91;93.97
46129;BME280;31860;45.186;5.790;2023-02-01T09:11:01;100521.25;;;5.99;93.41
46129;BME280;31860;45.186;5.790;2023-02-01T09:13:27;100510.22;;;6.05;92.46
46129;BME280;31860;45.186;5.790;2023-02-01T09:15:53;100507.88;;;6.11;92.06
46129;BME280;31860;45.186;5.790;2023-02-01T09:18:18;100494.16;;;6.15;91.34
46129;BME280;31860;45.186;5.790;2023-02-01T09:20:44;100502.19;;;6.21;90.88
46129;BME280;31860;45.186;5.790;2023-02-01T09:23:10;100496.34;;;6.26;90.11
46129;BME280;31860;45.186;5.790;2023-02-01T09:25:37;100491.34;;;6.31;90.05
46129;BME280;31860;45.186;5.790;2023-02-01T09:28:03;100494.13;;;6.35;89.18
46129;BME280;31860;45.186;5.790;2023-02-01T09:30:31;100496.16;;;6.44;89.79
46129;BME280;31860;45.186;5.790;2023-02-01T09:32:57;100490.25;;;6.48;90.09
46129;BME280;31860;45.186;5.790;2023-02-01T09:35:23;100497.34;;;6.52;88.44
46129;BME280;31860;45.186;5.790;2023-02-01T09:37:48;100490.59;;;6.57;87.72
46129;BME280;31860;45.186;5.790;2023-02-01T09:40:15;100488.22;;;6.63;87.33
46129;BME280;31860;45.186;5.790;2023-02-01T09:45:59;100513.75;;;6.75;87.80
46129;BME280;31860;45.186;5.790;2023-02-01T09:48:38;100520.75;;;6.77;86.06
46129;BME280;31860;45.186;5.790;2023-02-01T09:51:15;100518.34;;;6.82;85.24
46129;BME280;31860;45.186;5.790;2023-02-01T09:53:43;100513.38;;;6.88;86.57
46129;BME280;31860;45.186;5.790;2023-02-01T09:58:42;100513.78;;;7.00;86.66
46129;BME280;31860;45.186;5.790;2023-02-01T10:01:27;100518.22;;;7.02;83.72
46129;BME280;31860;45.186;5.790;2023-02-01T10:04:23;100533.06;;;7.06;82.06
46129;BME280;31860;45.186;5.790;2023-02-01T10:07:23;100541.09;;;7.12;82.09
46129;BME280;31860;45.186;5.790;2023-02-01T10:10:14;100541.19;;;7.15;81.54
46129;BME280;31860;45.186;5.790;2023-02-01T10:12:57;100548.34;;;7.22;81.32
46129;BME280;31860;45.186;5.790;2023-02-01T10:15:35;100550.38;;;7.29;81.92
46129;BME280;31860;45.186;5.790;2023-02-01T10:26:22;100572.94;;;7.55;80.39
46129;BME280;31860;45.186;5.790;2023-02-01T10:28:50;100573.25;;;7.64;80.01
46129;BME280;31860;45.186;5.790;2023-02-01T10:31:17;100566.66;;;7.76;78.81
46129;BME280;31860;45.186;5.790;2023-02-01T10:33:47;100567.91;;;7.87;78.04
46129;BME280;31860;45.186;5.790;2023-02-01T10:36:21;100566.50;;;7.96;77.62
46129;BME280;31860;45.186;5.790;2023-02-01T10:38:48;100563.41;;;8.08;77.72
46129;BME280;31860;45.186;5.790;2023-02-01T10:41:21;100567.25;;;8.20;76.80
46129;BME280;31860;45.186;5.790;2023-02-01T10:43:53;100566.06;;;8.36;75.98
46129;BME280;31860;45.186;5.790;2023-02-01T10:46:21;100570.00;;;8.50;75.39
46129;BME280;31860;45.186;5.790;2023-02-01T10:48:48;100557.44;;;8.65;74.54
46129;BME280;31860;45.186;5.790;2023-02-01T10:51:20;100557.88;;;8.80;73.75
46129;BME280;31860;45.186;5.790;2023-02-01T10:54:00;100554.03;;;8.97;72.35
46129;BME280;31860;45.186;5.790;2023-02-01T10:56:27;100556.13;;;9.10;71.82
46129;BME280;31860;45.186;5.790;2023-02-01T10:59:02;100547.81;;;9.23;70.48
46129;BME280;31860;45.186;5.790;2023-02-01T11:01:31;100548.09;;;9.34;70.09
46129;BME280;31860;45.186;5.790;2023-02-01T11:04:00;100547.50;;;9.44;69.50
46129;BME280;31860;45.186;5.790;2023-02-01T11:06:35;100537.28;;;9.53;68.34
46129;BME280;31860;45.186;5.790;2023-02-01T11:09:24;100535.81;;;9.63;67.53
46129;BME280;31860;45.186;5.790;2023-02-01T11:14:16;100523.13;;;9.78;67.41
46129;BME280;31860;45.186;5.790;2023-02-01T11:16:48;100521.47;;;9.81;65.89
46129;BME280;31860;45.186;5.790;2023-02-01T11:19:16;100517.97;;;9.81;65.37
46129;BME280;31860;45.186;5.790;2023-02-01T11:21:43;100505.84;;;9.83;65.20
46129;BME280;31860;45.186;5.790;2023-02-01T11:24:22;100496.28;;;9.82;64.29
46129;BME280;31860;45.186;5.790;2023-02-01T11:26:48;100494.56;;;9.82;65.06
46129;BME280;31860;45.186;5.790;2023-02-01T11:29:17;100490.19;;;9.83;64.12
46129;BME280;31860;45.186;5.790;2023-02-01T11:31:48;100477.06;;;9.78;63.68
46129;BME280;31860;45.186;5.790;2023-02-01T11:34:17;100473.59;;;9.79;63.52
46129;BME280;31860;45.186;5.790;2023-02-01T11:36:46;100463.13;;;9.78;62.91
46129;BME280;31860;45.186;5.790;2023-02-01T11:42:05;100443.03;;;9.74;61.10
46129;BME280;31860;45.186;5.790;2023-02-01T11:44:46;100424.75;;;9.74;62.27
46129;BME280;31860;45.186;5.790;2023-02-01T11:49:49;100388.28;;;9.75;62.25
46129;BME280;31860;45.186;5.790;2023-02-01T12:05:37;100369.13;;;10.12;59.88
46129;BME280;31860;45.186;5.790;2023-02-01T12:08:20;100360.59;;;10.22;59.83
46129;BME280;31860;45.186;5.790;2023-02-01T12:11:20;100353.09;;;10.37;59.75
46129;BME280;31860;45.186;5.790;2023-02-01T12:14:09;100352.50;;;10.52;58.92
46129;BME280;31860;45.186;5.790;2023-02-01T12:16:49;100358.84;;;10.66;58.97
46129;BME280;31860;45.186;5.790;2023-02-01T12:27:39;100337.16;;;11.22;56.67
46129;BME280;31860;45.186;5.790;2023-02-01T12:30:40;100333.03;;;11.36;56.00
46129;BME280;31860;45.186;5.790;2023-02-01T12:33:21;100323.59;;;11.47;56.22
46129;BME280;31860;45.186;5.790;2023-02-01T12:36:06;100314.19;;;11.60;56.05
46129;BME280;31860;45.186;5.790;2023-02-01T12:38:52;100313.59;;;11.76;54.44
46129;BME280;31860;45.186;5.790;2023-02-01T12:42:22;100313.72;;;11.86;54.75
46129;BME280;31860;45.186;5.790;2023-02-01T12:46:57;100310.53;;;12.08;54.37
46129;BME280;31860;45.186;5.790;2023-02-01T12:49:31;100308.88;;;12.18;53.96
46129;BME280;31860;45.186;5.790;2023-02-01T12:52:06;100295.91;;;12.28;53.49
46129;BME280;31860;45.186;5.790;2023-02-01T12:58:15;100294.41;;;12.53;51.94
46129;BME280;31860;45.186;5.790;2023-02-01T13:00:50;100292.72;;;12.60;52.36
46129;BME280;31860;45.186;5.790;2023-02-01T13:06:19;100286.78;;;12.80;50.84
46129;BME280;31860;45.186;5.790;2023-02-01T13:09:34;100274.63;;;12.87;51.58
46129;BME280;31860;45.186;5.790;2023-02-01T13:11:39;100284.34;;;13.00;51.83
46129;BME280;31860;45.186;5.790;2023-02-01T13:16:52;100270.53;;;13.17;51.27
46129;BME280;31860;45.186;5.790;2023-02-01T13:21:51;100260.16;;;13.39;51.03
46129;BME280;31860;45.186;5.790;2023-02-01T13:24:41;100261.09;;;13.51;49.56
46129;BME280;31860;45.186;5.790;2023-02-01T13:27:14;100269.03;;;13.62;50.43
46129;BME280;31860;45.186;5.790;2023-02-01T13:29:51;100267.31;;;13.68;49.61
46129;BME280;31860;45.186;5.790;2023-02-01T13:35:38;100263.91;;;13.90;48.17
46129;BME280;31860;45.186;5.790;2023-02-01T13:40:48;100262.22;;;14.10;49.15
46129;BME280;31860;45.186;5.790;2023-02-01T13:43:24;100263.16;;;14.21;48.50
46129;BME280;31860;45.186;5.790;2023-02-01T13:45:54;100268.41;;;14.26;48.30
46129;BME280;31860;45.186;5.790;2023-02-01T13:48:28;100271.09;;;14.32;47.41
46129;BME280;31860;45.186;5.790;2023-02-01T13:50:57;100268.44;;;14.35;47.97
46129;BME280;31860;45.186;5.790;2023-02-01T13:53:29;100249.19;;;14.35;47.30
46129;BME280;31860;45.186;5.790;2023-02-01T13:55:59;100258.81;;;14.36;47.94
46129;BME280;31860;45.186;5.790;2023-02-01T13:58:37;100251.81;;;14.36;47.41
46129;BME280;31860;45.186;5.790;2023-02-01T14:03:48;100250.00;;;14.26;48.08
46129;BME280;31860;45.186;5.790;2023-02-01T14:06:17;100244.75;;;14.21;47.77
46129;BME280;31860;45.186;5.790;2023-02-01T14:08:44;100245.59;;;14.16;47.95
46129;BME280;31860;45.186;5.790;2023-02-01T14:11:45;100238.56;;;14.09;46.80
46129;BME280;31860;45.186;5.790;2023-02-01T14:16:40;100226.28;;;13.97;48.12
46129;BME280;31860;45.186;5.790;2023-02-01T14:21:50;100225.38;;;13.85;47.87
46129;BME280;31860;45.186;5.790;2023-02-01T14:24:33;100229.72;;;13.78;47.12
46129;BME280;31860;45.186;5.790;2023-02-01T14:27:02;100223.56;;;13.73;48.34
46129;BME280;31860;45.186;5.790;2023-02-01T14:29:40;100222.69;;;13.67;48.30
46129;BME280;31860;45.186;5.790;2023-02-01T14:32:21;100218.28;;;13.63;47.98
46129;BME280;31860;45.186;5.790;2023-02-01T14:48:39;100214.59;;;13.27;49.28
46129;BME280;31860;45.186;5.790;2023-02-01T14:50:41;100207.56;;;13.20;49.33
46129;BME280;31860;45.186;5.790;2023-02-01T14:58:50;100205.66;;;13.01;49.17
46129;BME280;31860;45.186;5.790;2023-02-01T15:01:29;100192.50;;;12.92;49.56
46129;BME280;31860;45.186;5.790;2023-02-01T15:04:12;100191.59;;;12.86;49.96
46129;BME280;31860;45.186;5.790;2023-02-01T15:06:53;100188.91;;;12.80;50.52
46129;BME280;31860;45.186;5.790;2023-02-01T15:14:26;100194.88;;;12.61;51.25
46129;BME280;31860;45.186;5.790;2023-02-01T15:16:52;100190.47;;;12.54;51.40
46129;BME280;31860;45.186;5.790;2023-02-01T15:19:25;100188.69;;;12.48;51.61
46129;BME280;31860;45.186;5.790;2023-02-01T15:21:53;100182.50;;;12.45;51.94